createdAt,value
2019-05-05T00:01:38.747Z,20.00
2019-05-05T00:04:34.730Z,20.20
2019-05-05T00:07:09.755Z,20.40
2019-05-05T00:09:45.532Z,20.40
2019-05-05T00:12:22.690Z,20.50
2019-05-05T00:15:14.592Z,20.50
2019-05-05T00:17:50.692Z,20.70
2019-05-05T00:20:26.059Z,20.80
2019-05-05T00:23:01.922Z,20.90
2019-05-05T00:25:37.457Z,21.10
2019-05-05T00:28:14.317Z,21.10
2019-05-05T00:30:49.832Z,21.10
2019-05-05T00:33:25.578Z,21.30
2019-05-05T00:36:01.002Z,21.40
2019-05-05T00:38:36.901Z,21.50
2019-05-05T00:41:14.651Z,21.60
2019-05-05T00:43:48.162Z,21.60
2019-05-05T00:46:24.584Z,21.70
2019-05-05T00:48:59.971Z,21.90
2019-05-05T00:51:35.155Z,22.10
2019-05-05T00:54:15.213Z,22.20
2019-05-05T00:56:50.817Z,22.30
2019-05-05T00:59:34.794Z,22.50
2019-05-05T01:02:17.592Z,22.40
2019-05-05T01:04:59.450Z,22.40
2019-05-05T01:07:35.047Z,22.40
2019-05-05T01:10:14.315Z,22.60
2019-05-05T01:12:51.127Z,22.70
2019-05-05T01:15:25.810Z,22.80
2019-05-05T01:18:02.297Z,23.00
2019-05-05T01:20:38.825Z,23.10
2019-05-05T01:23:15.020Z,23.30
2019-05-05T01:25:50.739Z,23.40
2019-05-05T01:28:26.193Z,23.30
2019-05-05T01:31:03.091Z,23.40
2019-05-05T01:33:39.611Z,23.30
2019-05-05T01:36:16.258Z,23.30
2019-05-05T01:39:04.334Z,23.30
2019-05-05T01:41:49.178Z,23.40
2019-05-05T01:44:27.995Z,23.40
2019-05-05T01:47:05.218Z,23.40
2019-05-05T01:49:39.918Z,23.70
2019-05-05T01:52:15.622Z,23.90
2019-05-05T01:54:57.284Z,23.90
2019-05-05T01:57:34.453Z,23.90
2019-05-05T02:00:14.844Z,24.00
2019-05-05T02:02:52.652Z,23.90
2019-05-05T02:05:27.924Z,24.10
2019-05-05T02:08:05.832Z,24.30
2019-05-05T02:10:45.177Z,24.60
2019-05-05T02:13:20.269Z,24.60
2019-05-05T02:15:56.087Z,24.70
2019-05-05T02:18:32.084Z,24.60
2019-05-05T02:21:14.624Z,24.80
2019-05-05T02:23:55.018Z,24.90
2019-05-05T02:26:34.870Z,24.80
2019-05-05T02:29:24.723Z,25.00
2019-05-05T02:32:18.387Z,24.90
2019-05-05T02:34:59.273Z,25.00
2019-05-05T02:37:36.445Z,24.90
2019-05-05T02:40:17.816Z,24.80
2019-05-05T02:42:59.111Z,25.10
2019-05-05T02:46:07.635Z,25.60
2019-05-05T02:48:44.982Z,25.70
2019-05-05T02:51:25.502Z,25.90
2019-05-05T02:54:01.227Z,26.00
2019-05-05T02:56:54.194Z,25.80
2019-05-05T03:00:13.487Z,25.90
2019-05-05T03:02:50.374Z,25.80
2019-05-05T03:05:26.297Z,25.70
2019-05-05T03:08:05.070Z,25.70
2019-05-05T03:13:40.561Z,25.90
2019-05-05T03:16:24.953Z,25.90
2019-05-05T03:18:59.937Z,25.90
2019-05-05T03:21:38.239Z,26.10
2019-05-05T03:24:15.557Z,26.20
2019-05-05T03:26:53.734Z,26.50
2019-05-05T03:29:28.933Z,26.60
2019-05-05T03:32:05.687Z,26.90
2019-05-05T03:34:44.513Z,26.70
2019-05-05T03:37:20.932Z,26.80
2019-05-05T03:39:57.755Z,26.90
2019-05-05T03:42:39.291Z,26.90
2019-05-05T03:45:19.072Z,26.90
2019-05-05T03:47:59.017Z,26.70
2019-05-05T03:50:38.894Z,26.50
2019-05-05T03:53:17.276Z,26.90
2019-05-05T03:55:54.524Z,27.30
2019-05-05T03:58:30.517Z,27.50
2019-05-05T04:01:26.647Z,27.30
2019-05-05T04:04:41.483Z,27.60
2019-05-05T04:07:16.646Z,27.40
2019-05-05T04:09:54.292Z,27.10
2019-05-05T04:12:31.556Z,27.20
2019-05-05T04:15:17.148Z,27.30
2019-05-05T04:18:15.227Z,27.30
2019-05-05T04:20:50.768Z,27.10
2019-05-05T04:23:36.820Z,27.20
2019-05-05T04:26:16.163Z,27.50
2019-05-05T04:28:55.707Z,27.70
2019-05-05T04:31:34.537Z,27.40
2019-05-05T04:34:10.395Z,27.60
2019-05-05T04:36:55.982Z,27.70
2019-05-05T04:39:26.279Z,27.50
2019-05-05T04:42:11.011Z,27.80
2019-05-05T04:44:47.024Z,28.00
2019-05-05T04:47:28.078Z,27.90
2019-05-05T04:50:06.883Z,27.80
2019-05-05T04:52:43.949Z,28.00
2019-05-05T04:55:19.840Z,28.10
2019-05-05T04:58:04.505Z,28.20
2019-05-05T05:01:24.635Z,28.20
2019-05-05T05:07:36.653Z,28.00
2019-05-05T05:13:31.397Z,27.70
2019-05-05T05:16:09.926Z,27.50
2019-05-05T05:18:45.534Z,27.40
2019-05-05T05:21:23.705Z,27.30
2019-05-05T05:28:14.160Z,27.50
2019-05-05T05:30:48.317Z,27.30
2019-05-05T05:36:16.854Z,27.70
2019-05-05T05:42:01.183Z,27.70
2019-05-05T05:48:05.306Z,27.90
2019-05-05T05:51:14.642Z,27.90
2019-05-05T05:53:38.915Z,28.00
2019-05-05T05:56:18.435Z,28.00
2019-05-05T05:58:57.096Z,27.80
2019-05-05T06:01:37.960Z,27.80
2019-05-05T06:04:20.988Z,27.90
2019-05-05T06:06:56.371Z,27.90
2019-05-05T08:12:04.294Z,27.30
2019-05-05T08:14:45.517Z,27.50
2019-05-05T08:17:40.254Z,27.50
2019-05-05T08:20:19.420Z,27.50
2019-05-05T08:23:28.658Z,27.50
2019-05-05T08:26:04.589Z,27.40
2019-05-05T08:28:44.187Z,27.20
2019-05-05T08:31:22.340Z,27.20
2019-05-05T08:34:00.363Z,27.10
2019-05-05T08:36:39.417Z,27.10
2019-05-05T08:39:15.888Z,27.00
2019-05-05T08:41:56.571Z,27.00
2019-05-05T08:44:41.480Z,27.00
2019-05-05T08:47:17.650Z,27.00
2019-05-05T08:49:54.127Z,26.80
2019-05-05T08:52:29.821Z,26.70
2019-05-05T08:55:07.498Z,26.70
2019-05-05T08:57:45.350Z,26.60
2019-05-05T09:00:24.481Z,26.60
2019-05-05T09:03:03.573Z,26.60
2019-05-05T09:05:38.351Z,26.60
2019-05-05T09:08:14.077Z,26.50
2019-05-05T09:10:56.980Z,26.50
2019-05-05T09:13:33.875Z,26.40
2019-05-05T09:16:09.739Z,26.50
2019-05-05T09:19:01.212Z,26.40
2019-05-05T09:21:41.688Z,26.40
2019-05-05T09:24:24.846Z,26.40
2019-05-05T09:27:17.307Z,26.40
2019-05-05T09:30:00.657Z,26.40
2019-05-05T09:32:37.570Z,26.40
2019-05-05T09:35:15.169Z,26.30
2019-05-05T09:37:53.843Z,26.30
2019-05-05T09:40:33.498Z,26.30
2019-05-05T09:43:15.026Z,26.30
2019-05-05T09:45:54.452Z,26.30
2019-05-05T09:48:33.959Z,26.20
2019-05-05T09:51:10.154Z,26.20
2019-05-05T09:53:46.607Z,26.10
2019-05-05T09:56:23.829Z,26.10
2019-05-05T09:59:00.676Z,25.90
2019-05-05T10:01:37.313Z,25.70
2019-05-05T10:04:18.278Z,25.60
2019-05-05T10:06:55.450Z,25.40
2019-05-05T10:09:31.169Z,25.30
2019-05-05T10:12:06.905Z,25.20
2019-05-05T10:14:44.922Z,25.20
2019-05-05T10:17:24.461Z,25.30
2019-05-05T10:20:03.877Z,25.30
2019-05-05T10:22:39.024Z,25.10
2019-05-05T10:25:31.707Z,25.00
2019-05-05T10:28:09.337Z,24.90
2019-05-05T10:30:46.749Z,24.80
2019-05-05T10:33:27.535Z,24.90
2019-05-05T10:36:07.574Z,25.00
2019-05-05T10:38:46.996Z,24.90
2019-05-05T10:41:24.089Z,24.70
2019-05-05T10:44:03.671Z,24.70
2019-05-05T10:46:42.135Z,24.70
2019-05-05T10:49:19.480Z,24.70
2019-05-05T10:51:56.895Z,24.70
2019-05-05T10:54:43.279Z,24.50
2019-05-05T10:57:10.318Z,24.40
2019-05-05T10:59:48.385Z,24.40
2019-05-05T11:02:25.724Z,24.40
2019-05-05T11:05:04.083Z,24.30
2019-05-05T11:07:40.256Z,24.30
2019-05-05T11:10:17.030Z,24.20
2019-05-05T11:12:56.107Z,24.10
2019-05-05T11:15:33.529Z,24.10
2019-05-05T11:18:11.312Z,24.00
2019-05-05T11:20:50.473Z,24.10
2019-05-05T11:23:29.417Z,24.20
2019-05-05T11:26:06.388Z,24.10
2019-05-05T11:28:44.390Z,24.00
2019-05-05T11:31:23.919Z,23.90
2019-05-05T11:34:01.321Z,24.00
2019-05-05T11:36:40.086Z,23.90
2019-05-05T11:39:18.192Z,23.90
2019-05-05T11:41:56.726Z,23.90
2019-05-05T11:44:37.406Z,23.80
2019-05-05T11:47:13.986Z,23.70
2019-05-05T11:49:53.824Z,23.50
2019-05-05T11:52:29.664Z,23.60
2019-05-05T11:55:11.631Z,23.60
2019-05-05T11:57:43.768Z,23.60
2019-05-05T12:00:21.231Z,23.40
2019-05-05T12:03:09.886Z,23.40
2019-05-05T12:05:57.311Z,23.50
2019-05-05T12:08:37.918Z,23.40
2019-05-05T12:11:15.074Z,23.30
2019-05-05T12:13:54.431Z,23.20
2019-05-05T12:16:34.666Z,23.10
2019-05-05T12:19:13.768Z,23.10
2019-05-05T12:21:57.700Z,23.10
2019-05-05T12:24:37.178Z,23.20
2019-05-05T12:27:16.325Z,23.10
2019-05-05T12:29:54.452Z,23.10
2019-05-05T12:32:36.601Z,22.90
2019-05-05T12:35:14.938Z,22.80
2019-05-05T12:37:53.821Z,22.70
2019-05-05T12:40:34.788Z,22.70
2019-05-05T12:43:37.159Z,22.70
2019-05-05T12:46:30.632Z,22.70
2019-05-05T12:49:09.478Z,22.70
2019-05-05T12:51:47.448Z,22.70
2019-05-05T12:54:24.557Z,22.60
2019-05-05T12:57:00.876Z,22.70
2019-05-05T12:59:36.953Z,22.60
2019-05-05T13:02:14.777Z,22.50
2019-05-05T13:04:53.994Z,22.60
2019-05-05T13:07:31.258Z,22.60
2019-05-05T13:10:19.821Z,22.50
2019-05-05T13:12:55.919Z,22.40
2019-05-05T13:15:33.779Z,22.50
2019-05-05T13:18:14.032Z,22.40
2019-05-05T13:21:07.163Z,22.50
2019-05-05T13:24:04.355Z,22.50
2019-05-05T13:27:08.499Z,22.50
2019-05-05T13:29:45.241Z,22.60
2019-05-05T13:32:21.910Z,22.60
2019-05-05T13:35:00.864Z,22.60
2019-05-05T13:37:44.269Z,22.50
2019-05-05T13:40:28.658Z,22.50
2019-05-05T13:43:06.918Z,22.40
2019-05-05T13:46:01.258Z,22.30
2019-05-05T13:48:37.431Z,22.30
2019-05-05T13:51:17.799Z,22.40
2019-05-05T13:53:58.792Z,22.40
2019-05-05T13:56:40.268Z,22.30
2019-05-05T13:59:26.618Z,22.30
2019-05-05T14:02:13.793Z,22.30
2019-05-05T14:04:50.780Z,22.10
2019-05-05T14:07:28.002Z,22.10
2019-05-05T14:10:04.912Z,22.10
2019-05-05T14:12:43.762Z,22.00
2019-05-05T14:15:33.985Z,22.10
2019-05-05T14:18:19.270Z,22.10
2019-05-05T14:20:56.278Z,22.00
2019-05-05T14:26:36.358Z,21.90
2019-05-05T14:29:14.670Z,22.00
2019-05-05T14:31:57.117Z,21.90
2019-05-05T14:34:41.515Z,22.00
2019-05-05T14:37:34.042Z,22.00
2019-05-05T14:40:28.972Z,21.90
2019-05-05T14:43:07.715Z,21.80
2019-05-05T14:45:45.025Z,21.80
2019-05-05T14:48:24.186Z,21.70
2019-05-05T14:51:04.289Z,21.70
2019-05-05T14:53:44.483Z,21.70
2019-05-05T14:56:35.430Z,21.70
2019-05-05T14:59:03.871Z,21.60
2019-05-05T15:01:41.639Z,21.60
2019-05-05T15:04:36.154Z,21.60
2019-05-05T15:07:20.401Z,21.50
2019-05-05T15:10:23.957Z,21.60
2019-05-05T15:13:04.541Z,21.50
2019-05-05T15:18:35.564Z,21.60
2019-05-05T15:21:18.939Z,21.60
2019-05-05T15:23:57.259Z,21.60
2019-05-05T15:26:34.434Z,21.60
2019-05-05T15:29:18.956Z,21.70
2019-05-05T15:31:56.315Z,21.70
2019-05-05T15:34:47.676Z,21.50
2019-05-05T15:37:29.819Z,21.40
2019-05-05T15:43:18.662Z,21.30
2019-05-05T15:46:00.697Z,21.40
2019-05-05T15:48:39.506Z,21.40
2019-05-05T15:51:18.811Z,21.20
2019-05-05T15:53:56.911Z,21.10
2019-05-05T15:59:28.521Z,21.20
2019-05-05T16:02:14.001Z,21.10
2019-05-05T16:04:55.319Z,21.20
2019-05-05T16:07:33.922Z,21.30
2019-05-05T16:10:15.944Z,21.20
2019-05-05T16:12:54.677Z,21.20
2019-05-05T16:15:39.390Z,20.90
2019-05-05T16:18:32.827Z,20.90
2019-05-05T16:21:26.285Z,20.90
2019-05-05T16:24:05.803Z,21.00
2019-05-05T16:26:43.286Z,20.90
2019-05-05T16:29:23.760Z,20.90
2019-05-05T16:32:05.475Z,21.00
2019-05-05T16:34:41.985Z,21.00
2019-05-05T16:37:17.762Z,21.00
2019-05-05T16:39:54.963Z,21.10
2019-05-05T16:42:35.316Z,21.00
2019-05-05T16:45:13.670Z,21.20
2019-05-05T16:47:49.980Z,21.20
2019-05-05T16:50:31.815Z,21.10
2019-05-05T16:53:17.118Z,21.10
2019-05-05T16:55:53.937Z,21.10
2019-05-05T16:58:30.677Z,21.10
2019-05-05T17:01:08.434Z,21.00
2019-05-05T17:03:45.840Z,21.00
2019-05-05T17:06:24.377Z,20.90
2019-05-05T17:09:00.911Z,21.10
2019-05-05T17:11:37.657Z,21.00
2019-05-05T17:14:23.433Z,20.80
2019-05-05T17:17:08.965Z,20.90
2019-05-05T17:19:47.721Z,20.90
2019-05-05T17:22:35.390Z,20.80
2019-05-05T17:25:13.845Z,20.80
2019-05-05T17:27:54.405Z,20.80
2019-05-05T17:30:29.735Z,20.70
2019-05-05T17:33:05.614Z,20.80
2019-05-05T17:35:41.708Z,20.80
2019-05-05T17:38:18.879Z,20.60
2019-05-05T17:40:55.690Z,20.70
2019-05-05T17:43:34.049Z,20.70
2019-05-05T17:46:15.345Z,20.60
2019-05-05T17:48:55.928Z,20.60
2019-05-05T17:51:37.035Z,20.60
2019-05-05T17:54:33.908Z,20.40
2019-05-05T17:57:09.689Z,20.50
2019-05-05T17:59:45.769Z,20.50
2019-05-05T18:02:23.675Z,20.40
2019-05-05T18:04:59.624Z,20.50
2019-05-05T18:07:36.571Z,20.50
2019-05-05T18:10:26.231Z,20.40
2019-05-05T18:13:04.629Z,20.20
2019-05-05T18:15:54.407Z,20.10
2019-05-05T18:18:30.630Z,20.20
2019-05-05T18:21:08.293Z,20.00
2019-05-05T18:23:48.449Z,19.80
2019-05-05T18:26:26.861Z,19.90
2019-05-05T18:29:03.822Z,19.90
2019-05-05T18:31:39.274Z,19.90
2019-05-05T18:34:16.233Z,19.90
2019-05-05T18:36:54.453Z,19.80
2019-05-05T18:39:30.757Z,20.00
2019-05-05T18:42:13.814Z,20.10
2019-05-05T18:44:50.177Z,19.80
2019-05-05T18:47:28.578Z,20.00
2019-05-05T18:50:06.148Z,20.10
2019-05-05T18:52:44.553Z,20.00
2019-05-05T18:55:20.919Z,20.20
2019-05-05T18:57:57.675Z,20.20
2019-05-05T19:00:50.495Z,20.10
2019-05-05T19:03:28.282Z,20.10
2019-05-05T19:06:05.200Z,20.10
2019-05-05T19:08:51.921Z,20.10
2019-05-05T19:11:20.249Z,20.30
2019-05-05T19:13:57.146Z,20.10
2019-05-05T19:16:35.367Z,19.60
2019-05-05T19:19:10.953Z,19.80
2019-05-05T19:21:50.533Z,19.80
2019-05-05T19:24:28.569Z,20.00
2019-05-05T19:27:04.242Z,20.10
2019-05-05T19:29:40.917Z,20.20
2019-05-05T19:32:16.289Z,20.00
2019-05-05T19:34:54.242Z,20.10
2019-05-05T19:37:28.457Z,20.00
2019-05-05T19:40:06.193Z,20.00
2019-05-05T19:42:45.941Z,20.10
2019-05-05T19:45:24.082Z,20.10
2019-05-05T19:48:00.396Z,20.00
2019-05-05T19:50:38.639Z,20.10
2019-05-05T19:53:28.095Z,19.60
2019-05-05T19:56:04.639Z,19.60
2019-05-05T19:58:55.082Z,19.70
2019-05-05T20:01:31.588Z,19.70
2019-05-05T20:03:53.961Z,19.80
2019-05-05T20:06:36.581Z,19.70
2019-05-05T20:09:16.789Z,19.80
2019-05-05T20:11:54.346Z,19.70
2019-05-05T20:14:30.454Z,19.80
2019-05-05T20:17:14.638Z,19.70
2019-05-05T20:19:50.131Z,19.70
2019-05-05T20:22:26.571Z,19.80
2019-05-05T20:25:04.250Z,19.80
2019-05-05T20:27:39.477Z,19.70
2019-05-05T20:30:20.509Z,19.90
2019-05-05T20:33:00.384Z,20.00
2019-05-05T20:35:40.605Z,20.10
2019-05-05T20:38:21.025Z,19.80
2019-05-05T20:41:14.357Z,19.90
2019-05-05T20:43:53.991Z,19.90
2019-05-05T20:46:29.853Z,19.70
2019-05-05T20:49:05.587Z,19.70
2019-05-05T20:51:41.237Z,19.90
2019-05-05T20:54:17.032Z,19.90
2019-05-05T20:56:53.981Z,20.00
2019-05-05T20:59:31.147Z,19.90
2019-05-05T21:02:09.125Z,19.80
2019-05-05T21:04:46.137Z,19.70
2019-05-05T21:07:24.416Z,19.80
2019-05-05T21:09:58.852Z,19.70
2019-05-05T21:12:42.276Z,19.80
2019-05-05T21:15:13.033Z,19.80
2019-05-05T21:17:48.434Z,19.90
2019-05-05T21:20:24.622Z,19.80
2019-05-05T21:23:07.386Z,19.80
2019-05-05T21:26:00.989Z,19.70
2019-05-05T21:28:36.520Z,19.80
2019-05-05T21:31:14.346Z,19.90
2019-05-05T21:33:50.813Z,19.90
2019-05-05T21:36:26.670Z,19.70
2019-05-05T21:39:03.913Z,19.60
2019-05-05T21:41:37.964Z,19.70
2019-05-05T21:44:14.657Z,19.60
2019-05-05T21:46:51.103Z,19.40
2019-05-05T21:49:26.754Z,19.40
2019-05-05T21:52:07.869Z,19.60
2019-05-05T21:54:50.174Z,19.60
2019-05-05T21:57:31.386Z,19.40
2019-05-05T22:00:09.092Z,19.70
2019-05-05T22:02:46.014Z,19.70
2019-05-05T22:05:23.889Z,19.60
2019-05-05T22:07:58.588Z,19.60
2019-05-05T22:10:34.642Z,19.70
2019-05-05T22:13:10.061Z,19.80
2019-05-05T22:15:45.945Z,19.90
2019-05-05T22:18:21.440Z,19.90
2019-05-05T22:20:58.531Z,19.90
2019-05-05T22:23:36.609Z,19.80
2019-05-05T22:26:14.601Z,19.50
2019-05-05T22:28:49.957Z,19.60
2019-05-05T22:31:25.696Z,19.60
2019-05-05T22:34:05.100Z,19.50
2019-05-05T22:36:37.030Z,19.40
2019-05-05T22:39:16.383Z,19.50
2019-05-05T22:41:50.824Z,19.70
2019-05-05T22:44:26.770Z,19.60
2019-05-05T22:47:04.506Z,19.60
2019-05-05T22:49:39.466Z,19.60
2019-05-05T22:52:15.186Z,19.40
2019-05-05T22:54:50.702Z,19.60
2019-05-05T22:57:26.907Z,19.70
2019-05-05T23:00:03.765Z,19.50
2019-05-05T23:02:56.720Z,19.70
2019-05-05T23:05:50.126Z,19.80
2019-05-05T23:08:27.697Z,19.50
2019-05-05T23:11:04.081Z,19.80
2019-05-05T23:13:40.013Z,19.70
2019-05-05T23:16:16.500Z,19.60
2019-05-05T23:18:54.226Z,19.80
2019-05-05T23:21:28.625Z,19.80
2019-05-05T23:24:16.916Z,19.80
2019-05-05T23:26:54.623Z,19.90
2019-05-05T23:29:30.270Z,20.00
2019-05-05T23:32:06.245Z,20.00
2019-05-05T23:34:41.856Z,20.00
2019-05-05T23:37:17.810Z,20.00
2019-05-05T23:39:54.123Z,20.20
2019-05-05T23:42:29.961Z,20.20
2019-05-05T23:45:09.209Z,20.20
2019-05-05T23:47:45.060Z,20.40
2019-05-05T23:50:21.219Z,20.20
2019-05-05T23:52:58.538Z,20.00
2019-05-05T23:55:34.453Z,20.10
2019-05-05T23:58:10.575Z,20.20
